Aeroporto :
LOGIN :

Iscrizione | Disclaimer

   EN    FR    IT 

 










Sommario :    VFR   VFR Marginale   IFR   IFR Intensivo   IFR Molto Intensivo
Visibilità : 
Base nubi : 
>= 8 km
>= 3000ft
5 / 8 km
1000 / 3000 ft
1500m / 5 km
500 / 1000 ft
800 / 1500m
200 / 500 ft
< 800m
< 200 ft
Simboli :   Temporali  Nebbia  Neve Forte  Precipitazioni Forti  Vento > 20 kt
SIGMETs :   Varie  Temporali  Ghiacco  Turbolenza  Onda orograficha  Ceneri Vulcaniche






- Altitudine del aeroporto : 39 ft
- Codice IATA : ANR


EBAW - Anvers / Antwerpen Deurne

ULTIMO METAR :
  • 230650Z 22006KT 190V250 9999 BKN008 19/18 Q1015 REDZ TEMPO BKN012

METARs OBSOLETI :
  • 230620Z 21005KT 4000 DZ BKN006 19/18 Q1015 RERA TEMPO BKN012
  • 230550Z 21008KT 6000 -DZ BKN006 18/18 Q1015 RERA TEMPO BKN012
  • 230520Z 21007KT 4000 -DZ BKN006 18/17 Q1015 TEMPO BKN012
  • 230450Z 21009KT 4000 -DZ BKN007 18/18 Q1015 RERA TEMPO BKN012
  • 230420Z AUTO 20009KT 4000 RA BR FEW004/// BKN006/// OVC008/// 18/17 Q1016
  • 230350Z AUTO 22009KT 6000 RA SCT006/// BKN007/// BKN009/// 18/17 Q1016
  • 230320Z AUTO 19005KT 9999 -RA OVC018/// 19/17 Q1016 RERA
  • 230250Z AUTO 18005KT 9999 // BKN045/// 19/17 Q1016 RERA
  • 230220Z AUTO 21007KT 9999 -RA FEW012/// SCT024/// BKN030/// 19/16 Q1016

TAF TAF EBAW
Valido dal 23 a 06 ore il 23 a 15 ore UTC


230500Z 2306/2315 23010KT 8000 -RA SCT013 BKN020
TEMPO 2306/2315 4000 SHRA SCT008 BKN013TCU
PROB30
TEMPO 2306/2307 27015G30KT 2500 +SHRA BKN008 BKN013CB
BECMG 2310/2312 30012KT



MetMap, La meteo Aeronautica in un colpo d'occhio ! - Copyright ORBIFLY Dicembre 2007 - Disclaimer

ORBIFLY MET'MAP TEAM :

Programmazione e sviluppo : Alexandra Zaïnal
Concezione : Baudouin d'Aumeries
Supporto tecnico e logistico : Manuel Goepfert
Aiuto : Marc-Olivier Méhu
Aiuto per la traduzione : Arnaldo La Scala




FONTI E CREDITI :

   NOAA